sensor_id;sensor_type;location;lat;lon;timestamp;P1;durP1;ratioP1;P2;durP2;ratioP2
7729;SDS011;3908;52.310;7.230;2023-09-19T00:01:39;73.73;;;69.60;;
7729;SDS011;3908;52.310;7.230;2023-09-19T00:04:28;69.27;;;65.23;;
7729;SDS011;3908;52.310;7.230;2023-09-19T00:07:17;68.17;;;64.53;;
7729;SDS011;3908;52.310;7.230;2023-09-19T00:10:05;67.67;;;63.53;;
7729;SDS011;3908;52.310;7.230;2023-09-19T00:12:55;80.97;;;76.17;;
7729;SDS011;3908;52.310;7.230;2023-09-19T00:15:42;88.60;;;83.80;;
7729;SDS011;3908;52.310;7.230;2023-09-19T00:18:33;91.87;;;86.80;;
7729;SDS011;3908;52.310;7.230;2023-09-19T00:21:22;86.73;;;82.03;;
7729;SDS011;3908;52.310;7.230;2023-09-19T00:24:09;88.50;;;84.13;;
7729;SDS011;3908;52.310;7.230;2023-09-19T00:26:57;87.77;;;83.07;;
7729;SDS011;3908;52.310;7.230;2023-09-19T00:29:45;84.30;;;79.70;;
7729;SDS011;3908;52.310;7.230;2023-09-19T00:32:31;78.67;;;74.53;;
7729;SDS011;3908;52.310;7.230;2023-09-19T00:35:18;72.10;;;68.10;;
7729;SDS011;3908;52.310;7.230;2023-09-19T00:38:07;81.67;;;76.63;;
7729;SDS011;3908;52.310;7.230;2023-09-19T00:40:54;65.97;;;62.27;;
7729;SDS011;3908;52.310;7.230;2023-09-19T00:43:42;61.77;;;58.40;;
7729;SDS011;3908;52.310;7.230;2023-09-19T00:46:29;62.03;;;58.80;;
7729;SDS011;3908;52.310;7.230;2023-09-19T00:49:16;71.37;;;67.10;;
7729;SDS011;3908;52.310;7.230;2023-09-19T00:52:03;56.93;;;53.83;;
7729;SDS011;3908;52.310;7.230;2023-09-19T00:54:52;56.17;;;53.00;;
7729;SDS011;3908;52.310;7.230;2023-09-19T00:57:40;59.77;;;56.27;;
7729;SDS011;3908;52.310;7.230;2023-09-19T01:00:30;54.33;;;51.10;;
7729;SDS011;3908;52.310;7.230;2023-09-19T01:03:19;50.87;;;47.63;;
7729;SDS011;3908;52.310;7.230;2023-09-19T01:06:06;53.00;;;50.17;;
7729;SDS011;3908;52.310;7.230;2023-09-19T01:08:54;53.53;;;50.30;;
7729;SDS011;3908;52.310;7.230;2023-09-19T01:11:43;52.00;;;49.30;;
7729;SDS011;3908;52.310;7.230;2023-09-19T01:14:34;52.70;;;49.53;;
7729;SDS011;3908;52.310;7.230;2023-09-19T01:17:25;62.87;;;59.17;;
7729;SDS011;3908;52.310;7.230;2023-09-19T01:20:16;72.00;;;68.03;;
7729;SDS011;3908;52.310;7.230;2023-09-19T01:23:10;72.20;;;68.60;;
7729;SDS011;3908;52.310;7.230;2023-09-19T01:26:07;70.07;;;66.33;;
7729;SDS011;3908;52.310;7.230;2023-09-19T01:29:06;64.87;;;61.47;;
7729;SDS011;3908;52.310;7.230;2023-09-19T01:32:01;73.80;;;69.67;;
7729;SDS011;3908;52.310;7.230;2023-09-19T01:34:50;75.73;;;71.70;;
7729;SDS011;3908;52.310;7.230;2023-09-19T01:37:38;71.63;;;67.00;;
7729;SDS011;3908;52.310;7.230;2023-09-19T01:40:29;73.60;;;69.37;;
7729;SDS011;3908;52.310;7.230;2023-09-19T01:43:17;69.77;;;65.93;;
7729;SDS011;3908;52.310;7.230;2023-09-19T01:46:08;67.33;;;63.50;;
7729;SDS011;3908;52.310;7.230;2023-09-19T01:49:00;67.10;;;63.33;;
7729;SDS011;3908;52.310;7.230;2023-09-19T01:51:58;64.03;;;59.67;;
7729;SDS011;3908;52.310;7.230;2023-09-19T01:54:48;75.83;;;56.03;;
7729;SDS011;3908;52.310;7.230;2023-09-19T01:57:39;55.50;;;52.03;;
7729;SDS011;3908;52.310;7.230;2023-09-19T02:00:28;47.63;;;45.00;;
7729;SDS011;3908;52.310;7.230;2023-09-19T02:03:15;42.43;;;39.97;;
7729;SDS011;3908;52.310;7.230;2023-09-19T02:06:04;34.90;;;32.87;;
7729;SDS011;3908;52.310;7.230;2023-09-19T02:08:56;39.37;;;37.23;;
7729;SDS011;3908;52.310;7.230;2023-09-19T02:11:44;40.13;;;37.93;;
7729;SDS011;3908;52.310;7.230;2023-09-19T02:14:32;36.87;;;34.60;;
7729;SDS011;3908;52.310;7.230;2023-09-19T02:17:19;39.60;;;36.83;;
7729;SDS011;3908;52.310;7.230;2023-09-19T02:20:06;33.60;;;31.57;;
7729;SDS011;3908;52.310;7.230;2023-09-19T02:22:57;32.57;;;30.60;;
7729;SDS011;3908;52.310;7.230;2023-09-19T02:25:51;26.87;;;25.17;;
7729;SDS011;3908;52.310;7.230;2023-09-19T02:28:37;25.53;;;24.03;;
7729;SDS011;3908;52.310;7.230;2023-09-19T02:31:24;20.63;;;18.93;;
7729;SDS011;3908;52.310;7.230;2023-09-19T02:34:14;19.77;;;18.17;;
7729;SDS011;3908;52.310;7.230;2023-09-19T02:37:03;22.83;;;15.50;;
7729;SDS011;3908;52.310;7.230;2023-09-19T02:39:51;17.50;;;16.10;;
7729;SDS011;3908;52.310;7.230;2023-09-19T02:42:38;16.70;;;15.43;;
7729;SDS011;3908;52.310;7.230;2023-09-19T02:45:25;18.23;;;16.77;;
7729;SDS011;3908;52.310;7.230;2023-09-19T02:48:12;16.67;;;15.67;;
7729;SDS011;3908;52.310;7.230;2023-09-19T02:51:00;17.20;;;15.90;;
7729;SDS011;3908;52.310;7.230;2023-09-19T02:53:49;17.83;;;16.00;;
7729;SDS011;3908;52.310;7.230;2023-09-19T02:56:39;14.83;;;13.30;;
7729;SDS011;3908;52.310;7.230;2023-09-19T02:59:26;13.57;;;12.43;;
7729;SDS011;3908;52.310;7.230;2023-09-19T03:02:13;15.00;;;13.57;;
7729;SDS011;3908;52.310;7.230;2023-09-19T03:05:01;16.47;;;15.27;;
7729;SDS011;3908;52.310;7.230;2023-09-19T03:07:49;19.43;;;17.77;;
7729;SDS011;3908;52.310;7.230;2023-09-19T03:10:36;22.57;;;20.93;;
7729;SDS011;3908;52.310;7.230;2023-09-19T03:13:25;22.20;;;20.53;;
7729;SDS011;3908;52.310;7.230;2023-09-19T03:16:12;25.70;;;22.03;;
7729;SDS011;3908;52.310;7.230;2023-09-19T03:19:00;23.40;;;21.60;;
7729;SDS011;3908;52.310;7.230;2023-09-19T03:21:47;22.43;;;20.87;;
7729;SDS011;3908;52.310;7.230;2023-09-19T03:24:36;24.53;;;22.50;;
7729;SDS011;3908;52.310;7.230;2023-09-19T03:27:23;26.00;;;24.00;;
7729;SDS011;3908;52.310;7.230;2023-09-19T03:30:11;22.83;;;21.27;;
7729;SDS011;3908;52.310;7.230;2023-09-19T03:32:59;24.07;;;22.27;;
7729;SDS011;3908;52.310;7.230;2023-09-19T03:35:51;27.30;;;25.57;;
7729;SDS011;3908;52.310;7.230;2023-09-19T03:38:38;30.13;;;27.87;;
7729;SDS011;3908;52.310;7.230;2023-09-19T03:41:25;30.70;;;28.33;;
7729;SDS011;3908;52.310;7.230;2023-09-19T03:44:14;29.33;;;26.60;;
7729;SDS011;3908;52.310;7.230;2023-09-19T03:47:02;30.57;;;27.67;;
7729;SDS011;3908;52.310;7.230;2023-09-19T03:49:50;26.00;;;23.87;;
7729;SDS011;3908;52.310;7.230;2023-09-19T03:52:37;26.77;;;24.87;;
7729;SDS011;3908;52.310;7.230;2023-09-19T03:55:24;25.33;;;23.33;;
7729;SDS011;3908;52.310;7.230;2023-09-19T03:58:11;24.13;;;22.13;;
7729;SDS011;3908;52.310;7.230;2023-09-19T04:00:57;25.30;;;23.70;;
7729;SDS011;3908;52.310;7.230;2023-09-19T04:03:46;24.53;;;22.73;;
7729;SDS011;3908;52.310;7.230;2023-09-19T04:06:33;25.00;;;22.47;;
7729;SDS011;3908;52.310;7.230;2023-09-19T04:09:20;22.87;;;21.30;;
7729;SDS011;3908;52.310;7.230;2023-09-19T04:12:07;24.63;;;22.93;;
7729;SDS011;3908;52.310;7.230;2023-09-19T04:14:54;23.90;;;22.13;;
7729;SDS011;3908;52.310;7.230;2023-09-19T04:17:41;24.03;;;22.43;;
7729;SDS011;3908;52.310;7.230;2023-09-19T04:20:29;23.97;;;22.07;;
7729;SDS011;3908;52.310;7.230;2023-09-19T04:23:16;23.73;;;22.03;;
7729;SDS011;3908;52.310;7.230;2023-09-19T04:26:05;22.03;;;20.47;;
7729;SDS011;3908;52.310;7.230;2023-09-19T04:28:52;40.37;;;21.23;;
7729;SDS011;3908;52.310;7.230;2023-09-19T04:31:38;21.23;;;19.43;;
7729;SDS011;3908;52.310;7.230;2023-09-19T04:34:29;18.60;;;17.07;;
7729;SDS011;3908;52.310;7.230;2023-09-19T04:37:17;18.77;;;16.90;;
7729;SDS011;3908;52.310;7.230;2023-09-19T04:40:05;15.97;;;14.87;;
7729;SDS011;3908;52.310;7.230;2023-09-19T04:42:56;18.10;;;16.47;;
7729;SDS011;3908;52.310;7.230;2023-09-19T04:45:42;16.27;;;14.97;;
7729;SDS011;3908;52.310;7.230;2023-09-19T04:48:29;17.73;;;16.20;;
7729;SDS011;3908;52.310;7.230;2023-09-19T04:51:17;15.87;;;14.50;;
7729;SDS011;3908;52.310;7.230;2023-09-19T04:54:06;16.37;;;14.57;;
7729;SDS011;3908;52.310;7.230;2023-09-19T04:56:52;16.30;;;14.57;;
7729;SDS011;3908;52.310;7.230;2023-09-19T04:59:39;14.13;;;12.97;;
7729;SDS011;3908;52.310;7.230;2023-09-19T05:02:28;14.33;;;13.10;;
7729;SDS011;3908;52.310;7.230;2023-09-19T05:05:16;13.27;;;12.07;;
7729;SDS011;3908;52.310;7.230;2023-09-19T05:08:04;15.87;;;14.03;;
7729;SDS011;3908;52.310;7.230;2023-09-19T05:10:52;15.40;;;13.73;;
7729;SDS011;3908;52.310;7.230;2023-09-19T05:13:41;15.33;;;14.00;;
7729;SDS011;3908;52.310;7.230;2023-09-19T05:16:28;16.20;;;14.53;;
7729;SDS011;3908;52.310;7.230;2023-09-19T05:19:16;17.27;;;15.73;;
7729;SDS011;3908;52.310;7.230;2023-09-19T05:22:03;19.83;;;17.87;;
7729;SDS011;3908;52.310;7.230;2023-09-19T05:24:52;18.80;;;17.40;;
7729;SDS011;3908;52.310;7.230;2023-09-19T05:27:43;18.40;;;16.73;;
7729;SDS011;3908;52.310;7.230;2023-09-19T05:30:30;20.97;;;19.13;;
7729;SDS011;3908;52.310;7.230;2023-09-19T05:33:17;21.03;;;19.60;;
7729;SDS011;3908;52.310;7.230;2023-09-19T05:36:04;21.87;;;20.27;;
7729;SDS011;3908;52.310;7.230;2023-09-19T05:38:51;22.03;;;20.27;;
7729;SDS011;3908;52.310;7.230;2023-09-19T05:41:38;22.63;;;20.87;;
7729;SDS011;3908;52.310;7.230;2023-09-19T05:44:26;23.43;;;21.70;;
7729;SDS011;3908;52.310;7.230;2023-09-19T05:47:13;21.53;;;20.20;;
7729;SDS011;3908;52.310;7.230;2023-09-19T05:50:00;23.33;;;21.53;;
7729;SDS011;3908;52.310;7.230;2023-09-19T05:52:51;20.17;;;19.00;;
7729;SDS011;3908;52.310;7.230;2023-09-19T05:55:38;19.87;;;18.47;;
7729;SDS011;3908;52.310;7.230;2023-09-19T05:58:25;18.00;;;16.87;;
7729;SDS011;3908;52.310;7.230;2023-09-19T06:01:14;23.93;;;22.50;;
7729;SDS011;3908;52.310;7.230;2023-09-19T06:04:01;26.47;;;24.83;;
7729;SDS011;3908;52.310;7.230;2023-09-19T06:06:50;35.93;;;33.83;;
7729;SDS011;3908;52.310;7.230;2023-09-19T06:09:36;39.23;;;36.93;;
7729;SDS011;3908;52.310;7.230;2023-09-19T06:12:24;51.60;;;48.57;;
7729;SDS011;3908;52.310;7.230;2023-09-19T06:15:11;52.93;;;50.07;;
7729;SDS011;3908;52.310;7.230;2023-09-19T06:18:02;24.30;;;22.83;;
7729;SDS011;3908;52.310;7.230;2023-09-19T06:20:50;13.33;;;11.10;;
7729;SDS011;3908;52.310;7.230;2023-09-19T06:23:37;12.67;;;11.73;;
7729;SDS011;3908;52.310;7.230;2023-09-19T06:26:24;27.17;;;25.67;;
7729;SDS011;3908;52.310;7.230;2023-09-19T06:29:12;33.53;;;31.67;;
7729;SDS011;3908;52.310;7.230;2023-09-19T06:31:59;20.63;;;18.97;;
7729;SDS011;3908;52.310;7.230;2023-09-19T06:34:52;13.00;;;11.90;;
7729;SDS011;3908;52.310;7.230;2023-09-19T06:37:39;14.80;;;11.70;;
7729;SDS011;3908;52.310;7.230;2023-09-19T06:40:27;14.30;;;10.00;;
7729;SDS011;3908;52.310;7.230;2023-09-19T06:43:13;11.73;;;10.70;;
7729;SDS011;3908;52.310;7.230;2023-09-19T06:46:00;11.10;;;10.00;;
7729;SDS011;3908;52.310;7.230;2023-09-19T06:48:47;11.93;;;10.73;;
7729;SDS011;3908;52.310;7.230;2023-09-19T06:51:36;12.73;;;10.30;;
7729;SDS011;3908;52.310;7.230;2023-09-19T06:54:23;12.07;;;10.90;;
7729;SDS011;3908;52.310;7.230;2023-09-19T06:57:09;13.63;;;12.40;;
7729;SDS011;3908;52.310;7.230;2023-09-19T06:59:56;17.23;;;15.67;;
7729;SDS011;3908;52.310;7.230;2023-09-19T07:02:43;24.17;;;22.80;;
7729;SDS011;3908;52.310;7.230;2023-09-19T07:05:30;27.20;;;25.63;;
7729;SDS011;3908;52.310;7.230;2023-09-19T07:08:19;29.83;;;28.07;;
7729;SDS011;3908;52.310;7.230;2023-09-19T07:11:11;44.17;;;41.50;;
7729;SDS011;3908;52.310;7.230;2023-09-19T07:13:59;50.67;;;48.10;;
7729;SDS011;3908;52.310;7.230;2023-09-19T07:16:47;65.03;;;61.97;;
7729;SDS011;3908;52.310;7.230;2023-09-19T07:19:36;77.33;;;73.33;;
7729;SDS011;3908;52.310;7.230;2023-09-19T07:22:22;69.67;;;66.00;;
7729;SDS011;3908;52.310;7.230;2023-09-19T07:25:10;52.30;;;49.20;;
7729;SDS011;3908;52.310;7.230;2023-09-19T07:27:59;30.17;;;28.03;;
7729;SDS011;3908;52.310;7.230;2023-09-19T07:30:46;22.17;;;20.37;;
7729;SDS011;3908;52.310;7.230;2023-09-19T07:33:33;15.40;;;13.63;;
7729;SDS011;3908;52.310;7.230;2023-09-19T07:36:19;12.33;;;11.23;;
7729;SDS011;3908;52.310;7.230;2023-09-19T07:39:06;12.70;;;11.57;;
7729;SDS011;3908;52.310;7.230;2023-09-19T07:41:54;15.63;;;14.33;;
7729;SDS011;3908;52.310;7.230;2023-09-19T07:44:42;15.87;;;14.43;;
7729;SDS011;3908;52.310;7.230;2023-09-19T07:47:29;16.57;;;15.03;;
7729;SDS011;3908;52.310;7.230;2023-09-19T07:50:18;18.40;;;17.10;;
7729;SDS011;3908;52.310;7.230;2023-09-19T07:53:05;22.87;;;21.03;;
7729;SDS011;3908;52.310;7.230;2023-09-19T07:55:52;21.77;;;20.37;;
7729;SDS011;3908;52.310;7.230;2023-09-19T07:58:42;20.37;;;19.00;;
7729;SDS011;3908;52.310;7.230;2023-09-19T08:01:29;33.43;;;31.17;;
7729;SDS011;3908;52.310;7.230;2023-09-19T08:04:17;26.37;;;24.20;;
7729;SDS011;3908;52.310;7.230;2023-09-19T08:07:04;51.60;;;49.00;;
7729;SDS011;3908;52.310;7.230;2023-09-19T08:09:51;84.57;;;79.87;;
7729;SDS011;3908;52.310;7.230;2023-09-19T08:12:38;73.17;;;69.13;;
7729;SDS011;3908;52.310;7.230;2023-09-19T08:15:32;32.17;;;29.90;;
7729;SDS011;3908;52.310;7.230;2023-09-19T08:18:19;26.50;;;24.60;;
7729;SDS011;3908;52.310;7.230;2023-09-19T08:21:08;25.37;;;23.17;;
7729;SDS011;3908;52.310;7.230;2023-09-19T08:23:55;18.47;;;13.93;;
7729;SDS011;3908;52.310;7.230;2023-09-19T08:26:43;18.00;;;16.47;;
7729;SDS011;3908;52.310;7.230;2023-09-19T08:29:30;24.23;;;22.53;;
7729;SDS011;3908;52.310;7.230;2023-09-19T08:32:19;34.63;;;32.43;;
7729;SDS011;3908;52.310;7.230;2023-09-19T08:35:10;20.13;;;18.47;;
7729;SDS011;3908;52.310;7.230;2023-09-19T08:37:57;30.10;;;28.03;;
7729;SDS011;3908;52.310;7.230;2023-09-19T08:40:46;56.97;;;53.97;;
7729;SDS011;3908;52.310;7.230;2023-09-19T08:43:32;82.40;;;77.67;;
7729;SDS011;3908;52.310;7.230;2023-09-19T08:46:20;72.90;;;69.10;;
7729;SDS011;3908;52.310;7.230;2023-09-19T08:49:08;113.73;;;108.00;;
7729;SDS011;3908;52.310;7.230;2023-09-19T08:51:59;107.13;;;101.77;;
7729;SDS011;3908;52.310;7.230;2023-09-19T08:54:48;73.80;;;70.03;;
7729;SDS011;3908;52.310;7.230;2023-09-19T08:57:35;72.73;;;68.73;;
7729;SDS011;3908;52.310;7.230;2023-09-19T09:00:24;64.40;;;61.00;;
7729;SDS011;3908;52.310;7.230;2023-09-19T09:03:13;88.20;;;83.57;;
7729;SDS011;3908;52.310;7.230;2023-09-19T09:06:02;85.57;;;81.13;;
7729;SDS011;3908;52.310;7.230;2023-09-19T09:08:50;77.00;;;72.67;;
7729;SDS011;3908;52.310;7.230;2023-09-19T09:11:37;84.03;;;79.80;;
7729;SDS011;3908;52.310;7.230;2023-09-19T09:14:25;62.73;;;58.80;;
7729;SDS011;3908;52.310;7.230;2023-09-19T09:17:12;72.50;;;68.47;;
7729;SDS011;3908;52.310;7.230;2023-09-19T09:19:59;83.68;;;79.43;;
7729;SDS011;3908;52.310;7.230;2023-09-19T09:22:53;63.88;;;60.00;;
7729;SDS011;3908;52.310;7.230;2023-09-19T09:25:46;39.10;;;36.60;;
7729;SDS011;3908;52.310;7.230;2023-09-19T09:28:34;30.85;;;29.13;;
7729;SDS011;3908;52.310;7.230;2023-09-19T09:31:24;27.48;;;25.98;;
7729;SDS011;3908;52.310;7.230;2023-09-19T09:34:11;22.63;;;21.15;;
7729;SDS011;3908;52.310;7.230;2023-09-19T09:36:59;41.40;;;38.97;;
7729;SDS011;3908;52.310;7.230;2023-09-19T09:39:50;67.75;;;64.13;;
7729;SDS011;3908;52.310;7.230;2023-09-19T09:42:39;72.10;;;68.55;;
7729;SDS011;3908;52.310;7.230;2023-09-19T09:45:26;77.68;;;73.65;;
7729;SDS011;3908;52.310;7.230;2023-09-19T09:48:24;72.35;;;68.57;;
7729;SDS011;3908;52.310;7.230;2023-09-19T09:51:28;65.55;;;61.85;;
7729;SDS011;3908;52.310;7.230;2023-09-19T09:54:16;72.15;;;68.50;;
7729;SDS011;3908;52.310;7.230;2023-09-19T09:57:06;55.72;;;52.70;;
7729;SDS011;3908;52.310;7.230;2023-09-19T10:00:05;61.97;;;58.17;;
7729;SDS011;3908;52.310;7.230;2023-09-19T10:03:09;48.35;;;45.33;;
7729;SDS011;3908;52.310;7.230;2023-09-19T10:06:06;53.45;;;50.55;;
7729;SDS011;3908;52.310;7.230;2023-09-19T10:09:10;35.63;;;33.47;;
7729;SDS011;3908;52.310;7.230;2023-09-19T10:12:03;31.63;;;29.45;;
7729;SDS011;3908;52.310;7.230;2023-09-19T10:14:52;44.58;;;41.63;;
7729;SDS011;3908;52.310;7.230;2023-09-19T10:17:43;45.45;;;42.38;;
7729;SDS011;3908;52.310;7.230;2023-09-19T10:20:31;54.00;;;50.70;;
7729;SDS011;3908;52.310;7.230;2023-09-19T10:23:23;54.83;;;51.72;;
7729;SDS011;3908;52.310;7.230;2023-09-19T10:26:11;53.95;;;50.63;;
7729;SDS011;3908;52.310;7.230;2023-09-19T10:29:00;47.83;;;44.67;;
7729;SDS011;3908;52.310;7.230;2023-09-19T10:31:49;30.98;;;28.98;;
7729;SDS011;3908;52.310;7.230;2023-09-19T10:34:36;26.75;;;24.75;;
7729;SDS011;3908;52.310;7.230;2023-09-19T10:37:26;44.58;;;41.58;;
7729;SDS011;3908;52.310;7.230;2023-09-19T10:40:13;103.00;;;97.93;;
7729;SDS011;3908;52.310;7.230;2023-09-19T10:43:02;25.33;;;23.23;;
7729;SDS011;3908;52.310;7.230;2023-09-19T10:45:50;27.27;;;25.33;;
7729;SDS011;3908;52.310;7.230;2023-09-19T10:48:40;17.45;;;15.93;;
7729;SDS011;3908;52.310;7.230;2023-09-19T10:51:30;24.88;;;23.35;;
7729;SDS011;3908;52.310;7.230;2023-09-19T10:54:18;19.90;;;17.95;;
7729;SDS011;3908;52.310;7.230;2023-09-19T10:57:08;23.58;;;22.17;;
7729;SDS011;3908;52.310;7.230;2023-09-19T11:00:02;39.15;;;36.85;;
7729;SDS011;3908;52.310;7.230;2023-09-19T11:06:13;26.27;;;24.27;;
7729;SDS011;3908;52.310;7.230;2023-09-19T11:09:02;29.90;;;27.98;;
7729;SDS011;3908;52.310;7.230;2023-09-19T11:12:09;37.67;;;35.92;;
7729;SDS011;3908;52.310;7.230;2023-09-19T11:14:56;30.73;;;28.55;;
7729;SDS011;3908;52.310;7.230;2023-09-19T11:17:43;54.15;;;51.28;;
7729;SDS011;3908;52.310;7.230;2023-09-19T11:20:33;56.95;;;54.10;;
7729;SDS011;3908;52.310;7.230;2023-09-19T11:23:28;58.95;;;55.78;;
7729;SDS011;3908;52.310;7.230;2023-09-19T11:26:32;67.05;;;63.50;;
7729;SDS011;3908;52.310;7.230;2023-09-19T11:29:30;71.57;;;67.85;;
7729;SDS011;3908;52.310;7.230;2023-09-19T11:32:19;53.78;;;51.00;;
7729;SDS011;3908;52.310;7.230;2023-09-19T11:35:37;64.32;;;61.30;;
7729;SDS011;3908;52.310;7.230;2023-09-19T11:39:02;53.17;;;50.50;;
7729;SDS011;3908;52.310;7.230;2023-09-19T11:41:54;42.80;;;40.45;;
7729;SDS011;3908;52.310;7.230;2023-09-19T11:44:42;48.47;;;45.83;;
7729;SDS011;3908;52.310;7.230;2023-09-19T11:47:29;50.45;;;47.95;;
7729;SDS011;3908;52.310;7.230;2023-09-19T11:50:18;44.83;;;42.30;;
7729;SDS011;3908;52.310;7.230;2023-09-19T11:53:06;50.00;;;47.05;;
7729;SDS011;3908;52.310;7.230;2023-09-19T11:55:57;50.42;;;47.33;;
7729;SDS011;3908;52.310;7.230;2023-09-19T11:58:46;43.30;;;40.85;;
7729;SDS011;3908;52.310;7.230;2023-09-19T12:01:34;43.33;;;41.28;;
7729;SDS011;3908;52.310;7.230;2023-09-19T12:04:21;49.35;;;47.03;;
7729;SDS011;3908;52.310;7.230;2023-09-19T12:07:18;51.63;;;48.58;;
7729;SDS011;3908;52.310;7.230;2023-09-19T12:10:07;42.22;;;40.15;;
7729;SDS011;3908;52.310;7.230;2023-09-19T12:12:58;45.00;;;42.53;;
7729;SDS011;3908;52.310;7.230;2023-09-19T12:15:46;44.00;;;41.55;;
7729;SDS011;3908;52.310;7.230;2023-09-19T12:18:34;40.75;;;38.03;;
7729;SDS011;3908;52.310;7.230;2023-09-19T12:21:22;43.20;;;40.60;;
7729;SDS011;3908;52.310;7.230;2023-09-19T12:24:11;38.65;;;36.63;;
7729;SDS011;3908;52.310;7.230;2023-09-19T12:26:59;43.53;;;40.70;;
7729;SDS011;3908;52.310;7.230;2023-09-19T12:29:51;42.53;;;40.38;;
7729;SDS011;3908;52.310;7.230;2023-09-19T12:32:41;37.75;;;35.50;;
7729;SDS011;3908;52.310;7.230;2023-09-19T12:35:27;36.72;;;34.72;;
7729;SDS011;3908;52.310;7.230;2023-09-19T12:38:22;44.63;;;42.08;;
7729;SDS011;3908;52.310;7.230;2023-09-19T12:41:09;41.92;;;39.35;;
7729;SDS011;3908;52.310;7.230;2023-09-19T12:43:56;34.42;;;32.40;;
7729;SDS011;3908;52.310;7.230;2023-09-19T12:46:46;31.27;;;29.30;;
7729;SDS011;3908;52.310;7.230;2023-09-19T12:49:33;28.95;;;27.15;;
7729;SDS011;3908;52.310;7.230;2023-09-19T12:52:20;28.77;;;26.77;;
7729;SDS011;3908;52.310;7.230;2023-09-19T12:55:07;25.23;;;23.65;;
7729;SDS011;3908;52.310;7.230;2023-09-19T12:58:00;33.40;;;30.90;;
7729;SDS011;3908;52.310;7.230;2023-09-19T13:00:50;38.95;;;36.53;;
7729;SDS011;3908;52.310;7.230;2023-09-19T13:03:39;41.08;;;38.85;;
7729;SDS011;3908;52.310;7.230;2023-09-19T13:06:35;40.13;;;37.95;;
7729;SDS011;3908;52.310;7.230;2023-09-19T13:09:23;38.80;;;36.75;;
7729;SDS011;3908;52.310;7.230;2023-09-19T13:12:36;37.15;;;35.25;;
7729;SDS011;3908;52.310;7.230;2023-09-19T13:15:24;38.38;;;36.15;;
7729;SDS011;3908;52.310;7.230;2023-09-19T13:18:15;32.40;;;30.40;;
7729;SDS011;3908;52.310;7.230;2023-09-19T13:21:08;38.17;;;35.95;;
7729;SDS011;3908;52.310;7.230;2023-09-19T13:27:04;34.95;;;33.08;;
7729;SDS011;3908;52.310;7.230;2023-09-19T13:29:52;34.03;;;32.05;;
7729;SDS011;3908;52.310;7.230;2023-09-19T13:32:38;39.92;;;37.88;;
7729;SDS011;3908;52.310;7.230;2023-09-19T13:35:26;50.55;;;48.08;;
7729;SDS011;3908;52.310;7.230;2023-09-19T13:38:14;43.30;;;41.20;;
7729;SDS011;3908;52.310;7.230;2023-09-19T13:41:01;42.45;;;40.13;;
7729;SDS011;3908;52.310;7.230;2023-09-19T13:43:47;37.65;;;35.05;;
7729;SDS011;3908;52.310;7.230;2023-09-19T13:46:34;33.28;;;31.27;;
7729;SDS011;3908;52.310;7.230;2023-09-19T13:49:21;31.80;;;29.92;;
7729;SDS011;3908;52.310;7.230;2023-09-19T13:52:09;30.52;;;28.77;;
7729;SDS011;3908;52.310;7.230;2023-09-19T13:54:57;29.23;;;27.75;;
7729;SDS011;3908;52.310;7.230;2023-09-19T13:57:44;28.55;;;26.67;;
7729;SDS011;3908;52.310;7.230;2023-09-19T14:00:31;31.20;;;29.23;;
7729;SDS011;3908;52.310;7.230;2023-09-19T14:03:19;26.83;;;25.27;;
7729;SDS011;3908;52.310;7.230;2023-09-19T14:06:06;26.50;;;24.95;;
7729;SDS011;3908;52.310;7.230;2023-09-19T14:08:54;28.48;;;26.73;;
7729;SDS011;3908;52.310;7.230;2023-09-19T14:11:42;25.17;;;23.75;;
7729;SDS011;3908;52.310;7.230;2023-09-19T14:14:31;27.77;;;26.38;;
7729;SDS011;3908;52.310;7.230;2023-09-19T14:17:18;25.60;;;24.08;;
7729;SDS011;3908;52.310;7.230;2023-09-19T14:20:05;24.80;;;23.42;;
7729;SDS011;3908;52.310;7.230;2023-09-19T14:22:52;24.33;;;22.85;;
7729;SDS011;3908;52.310;7.230;2023-09-19T14:25:39;20.73;;;19.63;;
7729;SDS011;3908;52.310;7.230;2023-09-19T14:28:27;20.60;;;19.15;;
7729;SDS011;3908;52.310;7.230;2023-09-19T14:31:15;20.77;;;19.42;;
7729;SDS011;3908;52.310;7.230;2023-09-19T14:34:02;22.25;;;20.65;;
7729;SDS011;3908;52.310;7.230;2023-09-19T14:36:49;20.30;;;19.20;;
7729;SDS011;3908;52.310;7.230;2023-09-19T14:39:36;21.10;;;19.80;;
7729;SDS011;3908;52.310;7.230;2023-09-19T14:42:23;20.83;;;19.42;;
7729;SDS011;3908;52.310;7.230;2023-09-19T14:45:12;20.98;;;19.75;;
7729;SDS011;3908;52.310;7.230;2023-09-19T14:48:02;19.77;;;18.75;;
7729;SDS011;3908;52.310;7.230;2023-09-19T14:50:50;23.15;;;21.67;;
7729;SDS011;3908;52.310;7.230;2023-09-19T14:53:37;21.13;;;20.13;;
7729;SDS011;3908;52.310;7.230;2023-09-19T14:56:24;19.73;;;18.55;;
7729;SDS011;3908;52.310;7.230;2023-09-19T14:59:11;18.88;;;17.67;;
7729;SDS011;3908;52.310;7.230;2023-09-19T15:02:00;18.40;;;17.23;;
7729;SDS011;3908;52.310;7.230;2023-09-19T15:04:46;15.27;;;13.90;;
7729;SDS011;3908;52.310;7.230;2023-09-19T15:07:34;15.48;;;14.18;;
7729;SDS011;3908;52.310;7.230;2023-09-19T15:10:22;19.58;;;18.35;;
7729;SDS011;3908;52.310;7.230;2023-09-19T15:13:09;26.50;;;25.10;;
7729;SDS011;3908;52.310;7.230;2023-09-19T15:15:58;28.70;;;27.17;;
7729;SDS011;3908;52.310;7.230;2023-09-19T15:18:46;22.35;;;21.15;;
7729;SDS011;3908;52.310;7.230;2023-09-19T15:21:33;33.38;;;31.60;;
7729;SDS011;3908;52.310;7.230;2023-09-19T15:24:20;35.53;;;33.70;;
7729;SDS011;3908;52.310;7.230;2023-09-19T15:27:07;34.03;;;32.38;;
7729;SDS011;3908;52.310;7.230;2023-09-19T15:29:54;38.35;;;36.35;;
7729;SDS011;3908;52.310;7.230;2023-09-19T15:32:41;35.70;;;33.72;;
7729;SDS011;3908;52.310;7.230;2023-09-19T15:35:29;29.60;;;28.27;;
7729;SDS011;3908;52.310;7.230;2023-09-19T15:38:16;30.10;;;28.50;;
7729;SDS011;3908;52.310;7.230;2023-09-19T15:41:02;24.25;;;23.02;;
7729;SDS011;3908;52.310;7.230;2023-09-19T15:43:50;22.17;;;21.10;;
7729;SDS011;3908;52.310;7.230;2023-09-19T15:46:37;22.83;;;21.52;;
7729;SDS011;3908;52.310;7.230;2023-09-19T15:49:23;17.63;;;16.67;;
7729;SDS011;3908;52.310;7.230;2023-09-19T15:52:12;18.52;;;17.65;;
7729;SDS011;3908;52.310;7.230;2023-09-19T15:54:58;16.27;;;15.27;;
7729;SDS011;3908;52.310;7.230;2023-09-19T15:57:45;29.60;;;28.23;;
7729;SDS011;3908;52.310;7.230;2023-09-19T16:00:32;27.90;;;26.58;;
7729;SDS011;3908;52.310;7.230;2023-09-19T16:03:19;39.08;;;37.10;;
7729;SDS011;3908;52.310;7.230;2023-09-19T16:06:10;33.17;;;31.58;;
7729;SDS011;3908;52.310;7.230;2023-09-19T16:08:59;28.58;;;27.13;;
7729;SDS011;3908;52.310;7.230;2023-09-19T16:11:49;43.13;;;41.08;;
7729;SDS011;3908;52.310;7.230;2023-09-19T16:14:35;57.63;;;54.58;;
7729;SDS011;3908;52.310;7.230;2023-09-19T16:17:23;86.75;;;82.65;;
7729;SDS011;3908;52.310;7.230;2023-09-19T16:20:09;39.72;;;37.60;;
7729;SDS011;3908;52.310;7.230;2023-09-19T16:22:57;60.63;;;57.75;;
7729;SDS011;3908;52.310;7.230;2023-09-19T16:25:45;53.80;;;51.17;;
7729;SDS011;3908;52.310;7.230;2023-09-19T16:28:32;64.90;;;61.65;;
7729;SDS011;3908;52.310;7.230;2023-09-19T16:31:19;33.83;;;32.00;;
7729;SDS011;3908;52.310;7.230;2023-09-19T16:34:06;44.97;;;42.80;;
7729;SDS011;3908;52.310;7.230;2023-09-19T16:36:54;55.00;;;52.13;;
7729;SDS011;3908;52.310;7.230;2023-09-19T16:39:41;63.65;;;60.50;;
7729;SDS011;3908;52.310;7.230;2023-09-19T16:42:30;58.33;;;55.47;;
7729;SDS011;3908;52.310;7.230;2023-09-19T16:45:16;94.70;;;90.00;;
7729;SDS011;3908;52.310;7.230;2023-09-19T16:48:03;78.07;;;74.40;;
7729;SDS011;3908;52.310;7.230;2023-09-19T16:50:50;75.97;;;72.30;;
7729;SDS011;3908;52.310;7.230;2023-09-19T16:53:38;80.37;;;76.73;;
7729;SDS011;3908;52.310;7.230;2023-09-19T16:56:24;105.97;;;101.00;;
7729;SDS011;3908;52.310;7.230;2023-09-19T16:59:13;64.63;;;61.60;;
7729;SDS011;3908;52.310;7.230;2023-09-19T17:02:01;90.38;;;86.28;;
7729;SDS011;3908;52.310;7.230;2023-09-19T17:04:48;113.87;;;108.47;;